Time;durP1;ratioP1;P1;durP2;ratioP2;P2;SDS_P1;SDS_P2;PMS_P1;PMS_P2;Temp;Humidity;BMP_temperature;BMP_pressure;BME280_temperature;BME280_humidity;BME280_pressure;Samples;Min_cycle;Max_cycle;Signal;HPM_P1;HPM_P2
2022/02/25 00:28:53;;;;;;;0.10;0.10;;;;;;;7.17;52.37;97467.28;12621837;23;20022;-75
2022/02/25 00:35:14;;;;;;;0.10;0.00;;;;;;;7.14;52.32;97498.22;12605949;23;20343;-75
2022/02/25 00:41:45;;;;;;;0.30;0.10;;;;;;;7.15;52.50;97508.78;12630480;23;20022;-75
2022/02/25 00:48:38;;;;;;;0.90;0.10;;;;;;;7.18;52.26;97518.72;12666875;23;20026;-75
2022/02/25 00:54:59;;;;;;;0.50;0.13;;;;;;;7.16;52.18;97515.78;12666154;23;20108;-75
2022/02/25 01:09:35;;;;;;;1.75;0.20;;;;;;;7.13;51.87;97536.38;12681396;23;20121;-75
2022/02/25 01:16:02;;;;;;;0.10;0.00;;;;;;;7.14;51.94;97529.53;12652662;23;20028;-75
2022/02/25 01:22:29;;;;;;;0.15;0.00;;;;;;;7.13;52.70;97538.41;12651476;23;20026;-75
2022/02/25 01:28:21;;;;;;;0.63;0.10;;;;;;;7.10;52.12;97556.97;12665523;23;20022;-75
2022/02/25 01:35:15;;;;;;;1.70;0.20;;;;;;;7.03;51.60;97580.00;12650884;23;20026;-75
2022/02/25 01:41:04;;;;;;;0.20;0.00;;;;;;;6.92;51.02;97574.97;12666607;23;20021;-75
2022/02/25 01:47:03;;;;;;;1.30;0.05;;;;;;;6.87;50.97;97562.81;12651135;23;20450;-75
2022/02/25 01:52:59;;;;;;;2.05;0.10;;;;;;;6.90;51.09;97599.78;12638605;23;20025;-75
2022/02/25 01:58:50;;;;;;;0.47;0.10;;;;;;;6.88;51.05;97613.50;12636613;23;20044;-75
2022/02/25 02:05:14;;;;;;;0.30;0.10;;;;;;;6.84;50.71;97624.25;12637182;23;20029;-75
2022/02/25 02:11:39;;;;;;;0.40;0.08;;;;;;;6.75;50.93;97627.69;12651491;23;20030;-75
2022/02/25 02:18:08;;;;;;;0.40;0.10;;;;;;;6.69;50.89;97616.84;12636860;23;20441;-75
2022/02/25 02:24:29;;;;;;;1.17;0.10;;;;;;;6.58;50.87;97634.72;12666187;23;20026;-75
2022/02/25 02:29:51;;;;;;;0.77;0.20;;;;;;;6.50;51.04;97641.66;12659418;23;20014;-75
2022/02/25 02:36:19;;;;;;;0.82;0.10;;;;;;;6.45;50.54;97639.84;12650225;23;20026;-75
2022/02/25 02:58:55;;;;;;;0.22;0.15;;;;;;;6.15;51.25;97668.56;12679245;23;20329;-75
2022/02/25 03:05:19;;;;;;;;;;;;;;;5.88;51.50;97679.47;12636859;23;20029;-75
2022/02/25 03:11:21;;;;;;;0.52;0.10;;;;;;;5.66;51.81;97698.44;12663093;23;19916;-75
2022/02/25 03:17:14;;;;;;;0.32;0.10;;;;;;;5.44;51.88;97693.78;12663258;23;20021;-75
2022/02/25 03:23:03;;;;;;;0.75;0.10;;;;;;;5.29;52.91;97708.41;12651964;23;20026;-75
2022/02/25 03:36:18;;;;;;;0.30;0.10;;;;;;;4.96;53.78;97729.00;12678853;23;20065;-75
2022/02/25 03:50:22;;;;;;;0.43;0.10;;;;;;;4.69;53.67;97768.13;12679893;23;20022;-75
2022/02/25 04:04:48;;;;;;;1.35;0.20;;;;;;;4.66;54.74;97780.31;12677798;23;20022;-75
2022/02/25 04:18:11;;;;;;;0.90;0.30;;;;;;;4.54;53.74;97795.81;12678923;23;20022;-75
2022/02/25 04:32:02;;;;;;;1.08;0.20;;;;;;;4.19;54.56;97787.09;12677665;23;20022;-75
2022/02/25 04:45:58;;;;;;;0.50;0.20;;;;;;;4.09;54.82;97799.25;12660326;23;20076;-77
2022/02/25 04:52:26;;;;;;;0.70;0.20;;;;;;;4.07;54.56;97821.91;12662127;23;20100;-76
2022/02/25 04:58:48;;;;;;;0.28;0.20;;;;;;;4.09;55.22;97833.13;12647812;23;20026;-76
2022/02/25 05:04:48;;;;;;;0.70;0.30;;;;;;;4.12;54.99;97834.06;12662347;23;20033;-76
2022/02/25 05:10:38;;;;;;;0.80;0.20;;;;;;;4.13;55.69;97841.06;12652344;23;20053;-75
2022/02/25 05:24:18;;;;;;;0.80;0.30;;;;;;;4.38;55.97;97860.66;12681090;23;20446;-76
2022/02/25 05:30:10;;;;;;;0.60;0.20;;;;;;;4.30;55.86;97872.41;12651976;23;20433;-76
2022/02/25 05:37:05;;;;;;;0.50;0.22;;;;;;;4.35;56.28;97887.38;12650765;23;20100;-76
2022/02/25 05:51:28;;;;;;;0.80;0.22;;;;;;;4.60;55.98;97904.16;12679576;23;20018;-75
2022/02/25 05:57:18;;;;;;;1.50;0.60;;;;;;;4.61;56.16;97911.16;12681876;23;20029;-75
2022/02/25 06:03:11;;;;;;;0.50;0.20;;;;;;;4.64;55.92;97926.69;12652414;23;20026;-76
2022/02/25 06:09:02;;;;;;;2.00;0.47;;;;;;;4.65;55.59;97933.69;12650078;23;20022;-76
2022/02/25 06:15:23;;;;;;;0.43;0.10;;;;;;;4.67;56.12;97961.50;12635475;23;20401;-76
2022/02/25 06:21:13;;;;;;;0.45;0.20;;;;;;;4.60;57.43;97970.53;12663780;23;20025;-76
2022/02/25 06:27:42;;;;;;;0.52;0.20;;;;;;;4.57;58.52;98032.44;12637100;23;20022;-76
2022/02/25 06:34:14;;;;;;;0.80;0.13;;;;;;;4.36;59.37;98031.81;12649131;23;20029;-76
2022/02/25 06:40:36;;;;;;;2.50;0.25;;;;;;;4.19;59.53;98027.50;12648956;23;20407;-76
2022/02/25 07:11:21;;;;;;;3.83;0.40;;;;;;;4.92;59.95;98074.41;12663611;23;20026;-76
2022/02/25 07:25:52;;;;;;;2.55;0.52;;;;;;;5.42;59.26;98106.09;12678900;23;20018;-76
2022/02/25 07:32:16;;;;;;;7.45;0.47;;;;;;;5.72;58.73;98105.38;12648403;23;20069;-76
2022/02/25 07:38:13;;;;;;;2.08;0.52;;;;;;;6.06;58.65;98118.16;12664135;23;20021;-76
2022/02/25 07:44:04;;;;;;;1.27;0.45;;;;;;;6.42;57.87;98124.19;12649678;23;20030;-77
2022/02/25 07:49:59;;;;;;;2.92;0.70;;;;;;;6.56;57.29;98127.47;12628805;23;20022;-76
2022/02/25 08:13:04;;;;;;;4.50;0.60;;;;;;;11.63;50.32;98170.41;12678506;23;20026;-76
2022/02/25 08:27:38;;;;;;;2.85;0.85;;;;;;;12.35;42.98;98162.78;12678915;23;20100;-76
2022/02/25 08:33:32;;;;;;;5.13;0.60;;;;;;;12.18;45.47;98183.34;12649082;23;20057;-76
2022/02/25 08:56:24;;;;;;;1.80;0.60;;;;;;;16.05;38.59;98197.66;12622921;23;20022;-78
2022/02/25 09:02:15;;;;;;;3.33;0.70;;;;;;;19.81;35.71;98197.28;12605521;23;20453;-74
2022/02/25 09:07:36;;;;;;;3.23;0.50;;;;;;;20.80;31.03;98197.34;12580896;23;20335;-77
2022/02/25 09:12:57;;;;;;;0.85;0.30;;;;;;;20.93;33.54;98212.69;12599424;23;20425;-78
2022/02/25 09:18:19;;;;;;;1.00;0.30;;;;;;;22.33;31.46;98222.84;12598651;23;20390;-77
2022/02/25 09:23:40;;;;;;;1.17;0.30;;;;;;;22.79;26.70;98203.50;12598538;23;20025;-77
2022/02/25 09:29:01;;;;;;;2.00;0.35;;;;;;;19.89;26.60;98208.94;12579080;23;20025;-77
2022/02/25 09:34:21;;;;;;;1.20;0.40;;;;;;;16.24;28.55;98203.63;12598190;23;20022;-76
2022/02/25 09:39:42;;;;;;;1.17;0.30;;;;;;;14.97;29.21;98211.34;12618379;23;20026;-78
2022/02/25 09:45:05;;;;;;;0.95;0.30;;;;;;;13.90;29.05;98198.69;12578470;23;20026;-79
2022/02/25 09:50:26;;;;;;;1.25;0.22;;;;;;;22.51;24.88;98203.44;12628265;23;20117;-77
2022/02/25 09:55:47;;;;;;;1.63;0.35;;;;;;;29.60;18.20;98213.28;12638591;23;20018;-79
2022/02/25 10:01:10;;;;;;;1.15;0.30;;;;;;;33.73;14.57;98217.63;12658288;23;20104;-80
2022/02/25 10:06:31;;;;;;;0.98;0.45;;;;;;;36.02;10.29;98214.81;12646593;23;20427;-80
2022/02/25 10:12:09;;;;;;;1.00;0.30;;;;;;;36.32;8.17;98221.25;12617533;23;20026;-82
2022/02/25 10:17:31;;;;;;;1.08;0.30;;;;;;;36.89;8.55;98228.38;12640474;23;20018;-81
2022/02/25 10:22:53;;;;;;;1.85;0.30;;;;;;;34.35;8.72;98212.84;12637770;23;20021;-83
2022/02/25 10:28:13;;;;;;;2.05;0.40;;;;;;;37.16;7.82;98228.25;12637539;23;20021;-83
2022/02/25 10:33:37;;;;;;;1.67;0.30;;;;;;;38.24;6.20;98222.47;12657233;23;20018;-82
2022/02/25 10:39:01;;;;;;;1.23;0.30;;;;;;;38.08;6.63;98232.47;12639504;23;20097;-83
2022/02/25 10:45:20;;;;;;;1.27;0.30;;;;;;;36.50;5.86;98223.66;12636794;23;20022;-81
2022/02/25 10:50:56;;;;;;;1.33;0.40;;;;;;;36.19;5.93;98223.78;12601221;23;20021;-81
2022/02/25 10:56:19;;;;;;;1.20;0.40;;;;;;;35.88;6.35;98212.28;12617050;23;20022;-79
2022/02/25 11:01:40;;;;;;;2.05;0.35;;;;;;;31.71;6.87;98208.69;12616757;23;20013;-79
2022/02/25 11:07:01;;;;;;;1.83;0.40;;;;;;;25.77;9.35;98201.16;12642702;23;20442;-80
2022/02/25 11:12:24;;;;;;;2.15;0.40;;;;;;;21.81;12.16;98204.91;12655453;23;20073;-77
2022/02/25 11:17:45;;;;;;;1.80;0.40;;;;;;;21.61;12.70;98196.47;12656166;23;20018;-76
2022/02/25 11:23:10;;;;;;;2.35;0.60;;;;;;;20.79;13.83;98204.41;12597478;23;20442;-76
2022/02/25 11:28:31;;;;;;;2.80;0.43;;;;;;;19.57;14.55;98200.59;12636859;23;20435;-76
2022/02/25 11:33:53;;;;;;;1.92;0.40;;;;;;;18.62;15.54;98210.75;12636099;23;20024;-76
2022/02/25 11:39:32;;;;;;;3.63;0.50;;;;;;;17.44;16.88;98192.72;12632716;23;20014;-78
2022/02/25 11:45:28;;;;;;;1.55;0.50;;;;;;;16.48;17.66;98204.16;12634622;23;20345;-76
2022/02/25 11:50:50;;;;;;;1.70;0.57;;;;;;;16.09;18.11;98220.38;12471958;23;20026;-77
2022/02/25 11:56:17;;;;;;;2.25;0.50;;;;;;;16.09;18.75;98201.41;12634801;23;20045;-76
2022/02/25 12:02:14;;;;;;;3.03;0.50;;;;;;;15.42;18.93;98206.16;12636588;23;20077;-77
2022/02/25 12:07:45;;;;;;;2.80;0.70;;;;;;;15.42;19.60;98217.41;12659077;23;20307;-77
2022/02/25 12:13:44;;;;;;;1.65;0.60;;;;;;;15.56;19.72;98195.00;12650996;23;20021;-77
2022/02/25 12:19:08;;;;;;;2.92;0.50;;;;;;;15.18;19.64;98200.66;12638462;23;20022;-77
2022/02/25 12:24:33;;;;;;;1.15;0.40;;;;;;;14.98;20.00;98196.69;12640903;23;20021;-77
2022/02/25 12:30:25;;;;;;;;;;;;;;;15.55;20.17;98197.06;12658953;23;20022;-77
2022/02/25 12:35:49;;;;;;;2.83;0.60;;;;;;;15.17;19.88;98184.41;12701105;23;20264;-77
2022/02/25 12:41:54;;;;;;;5.93;0.80;;;;;;;14.54;21.21;98180.75;12625313;23;20064;-77
2022/02/25 12:47:18;;;;;;;3.33;0.60;;;;;;;13.67;21.52;98179.00;12602249;23;20018;-76
2022/02/25 12:52:40;;;;;;;5.70;1.17;;;;;;;12.91;22.77;98176.25;12625784;23;20021;-76
2022/02/25 12:58:33;;;;;;;3.03;0.63;;;;;;;12.51;22.63;98174.31;12663699;23;20022;-77
2022/02/25 13:03:58;;;;;;;2.25;0.50;;;;;;;12.47;23.77;98179.66;12640778;23;20338;-76
2022/02/25 13:09:20;;;;;;;1.80;0.50;;;;;;;12.93;23.63;98173.59;12659880;23;20025;-76
2022/02/25 13:14:46;;;;;;;1.88;0.55;;;;;;;12.99;23.43;98173.25;12638606;23;20022;-77
2022/02/25 13:20:10;;;;;;;3.13;0.70;;;;;;;12.86;23.52;98180.88;12659532;23;20040;-77
2022/02/25 13:25:32;;;;;;;2.10;0.60;;;;;;;12.67;23.57;98164.22;12640592;23;20080;-76
2022/02/25 13:30:53;;;;;;;1.80;0.50;;;;;;;12.46;23.55;98161.41;12680915;23;20014;-77
2022/02/25 13:36:14;;;;;;;2.78;0.50;;;;;;;11.96;24.27;98162.22;12663543;23;20147;-77
2022/02/25 13:41:35;;;;;;;2.45;0.40;;;;;;;12.23;24.56;98165.50;12643396;23;20097;-77
2022/02/25 13:52:19;;;;;;;3.47;0.60;;;;;;;11.92;24.70;98167.56;12682545;23;20318;-76
2022/02/25 13:52:44;;;;;;;3.72;0.57;;;;;;;11.83;24.99;98148.75;12656778;23;20022;-76
2022/02/25 13:58:14;;;;;;;2.47;0.45;;;;;;;12.02;24.87;98129.81;12682570;23;20021;-77
2022/02/25 14:03:41;;;;;;;3.58;0.50;;;;;;;11.58;25.36;98147.03;12622478;23;20025;-76
2022/02/25 14:09:01;;;;;;;3.35;0.50;;;;;;;11.41;25.28;98169.59;12662005;23;20026;-76
2022/02/25 14:14:30;;;;;;;2.60;0.75;;;;;;;11.52;25.56;98174.56;12662947;23;20072;-79
2022/02/25 14:21:28;;;;;;;2.60;0.52;;;;;;;11.34;25.82;98168.41;12679366;23;20018;-80
2022/02/25 14:27:11;;;;;;;1.70;0.30;;;;;;;11.22;25.72;98164.03;12663180;23;20025;-80
2022/02/25 14:32:32;;;;;;;1.83;0.40;;;;;;;11.14;25.68;98166.97;12621459;23;20116;-79
2022/02/25 14:37:53;;;;;;;1.00;0.30;;;;;;;11.11;25.98;98156.97;12660333;23;20014;-77
2022/02/25 14:43:15;;;;;;;2.70;0.70;;;;;;;10.88;26.38;98165.78;12721392;23;20014;-83
2022/02/25 14:48:38;;;;;;;2.88;0.70;;;;;;;10.65;26.49;98168.28;12676594;23;20195;-77
2022/02/25 14:54:36;;;;;;;2.35;0.50;;;;;;;10.35;26.70;98161.91;12645889;23;20026;-78
2022/02/25 15:00:33;;;;;;;2.50;0.63;;;;;;;10.13;27.19;98166.50;12652125;23;20422;-77
2022/02/25 15:06:23;;;;;;;2.60;0.57;;;;;;;9.74;27.40;98171.19;12665956;23;20104;-77
2022/02/25 15:11:44;;;;;;;1.90;0.38;;;;;;;9.54;27.63;98169.63;12659408;23;20018;-77
2022/02/25 15:17:33;;;;;;;1.40;0.50;;;;;;;9.35;28.13;98184.91;12636907;23;20096;-79
2022/02/25 15:22:54;;;;;;;1.95;0.40;;;;;;;9.38;28.26;98191.38;12682943;23;20014;-79
2022/02/25 15:28:15;;;;;;;1.58;0.40;;;;;;;9.27;28.27;98192.63;12645889;23;20077;-77
2022/02/25 15:33:38;;;;;;;2.10;0.52;;;;;;;9.13;28.62;98183.13;12659469;23;20022;-78
2022/02/25 15:39:06;;;;;;;2.33;0.50;;;;;;;8.82;28.80;98177.91;12636630;23;20013;-76
2022/02/25 15:44:34;;;;;;;3.47;0.53;;;;;;;8.72;29.45;98191.00;12600014;23;20072;-76
2022/02/25 15:49:55;;;;;;;2.17;0.80;;;;;;;8.67;29.57;98191.97;12657255;23;20014;-78
2022/02/25 15:55:15;;;;;;;2.38;0.82;;;;;;;8.52;29.62;98183.78;12669098;23;20052;-78
2022/02/25 16:00:36;;;;;;;3.67;0.60;;;;;;;8.42;30.07;98191.31;12616180;23;20014;-77
2022/02/25 16:05:57;;;;;;;3.03;0.77;;;;;;;8.19;31.00;98205.34;12676835;23;20022;-77
2022/02/25 16:11:19;;;;;;;5.95;0.98;;;;;;;7.97;30.96;98202.19;12618585;23;20087;-76
2022/02/25 16:17:41;;;;;;;3.10;0.63;;;;;;;7.78;31.66;98198.41;12635374;23;20433;-76
2022/02/25 16:23:32;;;;;;;5.75;0.70;;;;;;;7.59;31.13;98193.34;12679344;23;20026;-77
2022/02/25 16:29:35;;;;;;;4.68;0.60;;;;;;;7.37;31.94;98195.66;12656705;23;20049;-75
2022/02/25 16:35:25;;;;;;;3.85;0.70;;;;;;;7.24;31.80;98198.69;12648725;23;20026;-76
2022/02/25 16:40:46;;;;;;;4.40;0.80;;;;;;;7.10;32.27;98214.84;12637649;23;20318;-75
2022/02/25 16:46:35;;;;;;;4.57;0.80;;;;;;;6.98;33.21;98219.31;12618301;23;20022;-76
2022/02/25 16:52:02;;;;;;;4.93;0.70;;;;;;;6.81;33.28;98208.06;12638091;23;20024;-77
2022/02/25 16:57:31;;;;;;;3.65;0.57;;;;;;;6.74;33.17;98220.66;12619200;23;20026;-76
2022/02/25 17:03:24;;;;;;;4.53;1.23;;;;;;;6.79;33.94;98227.31;12648049;23;20022;-76
2022/02/25 17:08:54;;;;;;;7.00;1.30;;;;;;;6.85;34.11;98230.63;12660867;23;20024;-76
2022/02/25 17:14:18;;;;;;;5.07;1.40;;;;;;;6.90;33.89;98243.56;12639463;23;20441;-78
2022/02/25 17:19:39;;;;;;;8.10;1.58;;;;;;;6.90;34.38;98257.44;12642502;23;20038;-78
2022/02/25 17:25:00;;;;;;;5.28;1.33;;;;;;;6.94;34.24;98260.59;12623909;23;20014;-79
2022/02/25 17:30:23;;;;;;;5.57;1.05;;;;;;;7.03;34.10;98262.78;12672045;23;20061;-81
2022/02/25 17:35:47;;;;;;;5.43;1.58;;;;;;;7.01;34.58;98273.72;12669781;23;20017;-78
2022/02/25 17:41:08;;;;;;;6.85;2.22;;;;;;;7.03;34.45;98275.94;12659156;23;20014;-78
2022/02/25 17:46:31;;;;;;;4.88;1.17;;;;;;;7.02;34.91;98277.97;12641698;23;20460;-78
2022/02/25 17:51:52;;;;;;;6.38;1.73;;;;;;;7.03;34.35;98285.00;12638505;23;20020;-78
2022/02/25 17:57:14;;;;;;;5.18;1.90;;;;;;;6.84;35.30;98309.63;12632398;23;20425;-78
2022/02/25 18:02:36;;;;;;;4.65;0.88;;;;;;;6.62;35.35;98308.34;12639274;23;20014;-78
2022/02/25 18:08:00;;;;;;;7.78;1.42;;;;;;;6.53;35.66;98312.41;12643515;23;20022;-77
2022/02/25 18:13:32;;;;;;;4.22;1.30;;;;;;;6.49;36.21;98317.59;12640951;23;20018;-78
2022/02/25 18:18:53;;;;;;;4.65;1.30;;;;;;;6.51;36.71;98326.09;12620206;23;20093;-77
2022/02/25 18:24:21;;;;;;;6.65;1.60;;;;;;;6.59;36.55;98337.94;12638482;23;20018;-77
2022/02/25 18:29:42;;;;;;;6.25;1.40;;;;;;;6.76;37.57;98340.16;12658282;23;20046;-77
2022/02/25 18:35:05;;;;;;;5.70;1.10;;;;;;;6.71;37.39;98348.66;12641560;23;20038;-81
2022/02/25 18:40:26;;;;;;;2.63;0.75;;;;;;;6.64;38.12;98344.59;12620988;23;20386;-77
2022/02/25 18:45:48;;;;;;;3.13;0.60;;;;;;;6.57;39.91;98351.63;12658970;23;20014;-75
2022/02/25 18:51:12;;;;;;;2.67;0.68;;;;;;;6.44;40.63;98345.50;12659022;23;20065;-77
2022/02/25 18:56:37;;;;;;;3.20;0.90;;;;;;;6.29;41.04;98349.00;12645068;23;20017;-78
2022/02/25 19:02:10;;;;;;;4.88;1.00;;;;;;;6.12;41.70;98351.53;12618618;23;20024;-76
2022/02/25 19:07:59;;;;;;;3.15;0.98;;;;;;;5.95;41.99;98372.16;12620802;23;20026;-77
2022/02/25 19:13:21;;;;;;;2.13;0.80;;;;;;;5.74;43.99;98375.00;12639678;23;20018;-77
2022/02/25 19:18:42;;;;;;;4.60;0.70;;;;;;;5.61;44.35;98393.78;12618954;23;20075;-77
2022/02/25 19:24:03;;;;;;;3.83;0.75;;;;;;;5.37;44.77;98372.78;12618388;23;20022;-77
2022/02/25 19:29:25;;;;;;;4.45;0.77;;;;;;;5.15;45.70;98383.16;12638549;23;20402;-78
2022/02/25 19:34:47;;;;;;;4.63;1.00;;;;;;;5.04;46.36;98374.41;12658366;23;20021;-78
2022/02/25 19:40:09;;;;;;;2.35;0.82;;;;;;;4.86;47.98;98379.63;12638729;23;20017;-77
2022/02/25 19:46:35;;;;;;;2.95;0.63;;;;;;;4.79;47.73;98380.28;12639570;23;20026;-79
2022/02/25 20:02:08;;;;;;;3.25;1.00;;;;;;;4.50;49.96;98404.34;12678507;23;20025;-80
2022/02/25 20:07:33;;;;;;;5.03;0.82;;;;;;;4.43;49.22;98398.75;12658274;23;20508;-79
2022/02/25 20:21:10;;;;;;;5.47;1.58;;;;;;;4.25;50.14;98412.22;12680084;23;20060;-76
2022/02/25 20:35:44;;;;;;;2.92;1.00;;;;;;;4.08;51.85;98409.06;12678316;23;20382;-76
2022/02/25 20:56:32;;;;;;;3.97;1.10;;;;;;;3.87;52.97;98422.06;12664138;23;20026;-76
2022/02/25 21:09:54;;;;;;;3.58;1.00;;;;;;;3.74;53.96;98420.78;12682349;23;20365;-77
2022/02/25 21:24:46;;;;;;;6.28;1.38;;;;;;;3.59;54.67;98442.69;12681686;23;20018;-76
2022/02/25 21:30:42;;;;;;;4.00;1.25;;;;;;;3.59;55.16;98433.66;12651220;23;20030;-77
2022/02/25 21:36:36;;;;;;;4.65;1.27;;;;;;;3.52;55.13;98443.31;12665121;23;20025;-75
2022/02/25 21:50:59;;;;;;;4.50;1.30;;;;;;;3.74;56.12;98436.59;12664348;23;20097;-76
2022/02/25 22:05:36;;;;;;;4.63;1.17;;;;;;;3.54;56.53;98424.19;12702519;23;20025;-76
2022/02/25 22:11:28;;;;;;;3.70;1.17;;;;;;;3.47;56.50;98429.59;12649980;23;20396;-76
2022/02/25 22:24:58;;;;;;;6.18;1.95;;;;;;;3.33;57.13;98442.66;12663864;23;20026;-76
2022/02/25 22:48:43;;;;;;;7.80;1.80;;;;;;;3.21;58.46;98471.72;12680288;23;20022;-76
